Daniel Island, South Carolina
Current Conditions -  °F | °C
As of 1:56 PM on Thursday 30 Oct 2014 (Local Time) from KCHS Reporting Station
Few Clouds Few Clouds  
Wind Chill: 74°   Ceiling: Unl
Heat Index: 74°   Visibility: 10mi
Dew Point: 56°   Wind: 6mph
Humidity: 53%   Direction: 360°N
Pressure: 29.95"   Gusts: NA
Location:  32.9577°N, 79.8822°W
Report Text: KCHS 301756Z 36005KT 10SM FEW040 23/13 A2995 RMK AO2 SLP140 T02330133 10233 20156 58016
Loading
Personal Weather Stations






























Interactive Weather Map
Tropical Storm Tracking
New forecast layout! Learn more

10-Day Weather Forecast

Advertisements
Track Severe Weather on mobile